This is the latest recevied weather packets stored in our database for station/object SR6WXJG. If no packets are shown the sender has not sent any weather packets the latest 10 day(s).
| Time | Temp. | Humidity | Pressure | Rain* | Wind** | Luminosity | Snow |
|---|---|---|---|---|---|---|---|
| 1777754953 | 13.33° C | 54% | 1019 hPa | 0 mm | - | - | - |
| 1777754053 | 13.33° C | 54% | 1019 hPa | 0 mm | - | - | - |
| 1777753153 | 14.44° C | 47% | 1019 hPa | 0 mm | - | - | - |
| 1777752252 | 15° C | 51% | 1019 hPa | 0 mm | - | - | - |
| 1777751352 | 15° C | 51% | 1019 hPa | 0 mm | - | - | - |
| 1777750451 | 15° C | 50% | 1019 hPa | 0 mm | - | - | - |
| 1777749551 | 16.11° C | 42% | 1019 hPa | 0 mm | - | - | - |
| 1777748651 | 17.22° C | 47% | 1019 hPa | 0 mm | - | - | - |
| 1777747750 | 17.22° C | 47% | 1019 hPa | 0 mm | - | - | - |
| 1777746850 | 17.22° C | 47% | 1019 hPa | 0 mm | - | - | - |
| 1777745950 | 18.89° C | 37% | 1019 hPa | 0 mm | - | - | - |
| 1777745049 | 20° C | 34% | 1019 hPa | 0 mm | - | - | - |
| 1777744149 | 20.56° C | 44% | 1019 hPa | 0 mm | - | - | - |
| 1777743248 | 20.56° C | 43% | 1019 hPa | 0 mm | - | - | - |
| 1777742348 | 22.22° C | 30% | 1019 hPa | 0 mm | - | - | - |
| 1777741448 | 22.78° C | 28% | 1019 hPa | 0 mm | - | - | - |
| 1777740547 | 22.78° C | 39% | 1019 hPa | 0 mm | - | - | - |
| 1777739647 | 22.78° C | 39% | 1019 hPa | 0 mm | - | - | - |
| 1777738747 | 23.89° C | 27% | 1020 hPa | 0 mm | - | - | - |
| 1777737846 | 23.89° C | 34% | 1020 hPa | 0 mm | - | - | - |
| 1777736946 | 23.89° C | 34% | 1020 hPa | 0 mm | - | - | - |
| 1777736046 | 23.89° C | 33% | 1020 hPa | 0 mm | - | - | - |
| 1777735145 | 24.44° C | 24% | 1020 hPa | 0 mm | - | - | - |
| 1777734245 | 24.44° C | 25% | 1021 hPa | 0 mm | - | - | - |
| 1777733344 | 23.89° C | 30% | 1020 hPa | 0 mm | - | - | - |
* Rain latest hour (hover to see other rain measurements)
** Current wind speed in m/s (hover to see current wind gust speed)